Time;durP1;ratioP1;P1;durP2;ratioP2;P2;SDS_P1;SDS_P2;PMS_P1;PMS_P2;Temp;Humidity;BMP_temperature;BMP_pressure;BME280_temperature;BME280_humidity;BME280_pressure;Samples;Min_cycle;Max_cycle;Signal;HPM_P1;HPM_P2
2021/12/29 00:00:43;;;;;;;7.80;7.60;;;7.70;99.90;;;;;;5025594;28;20224;-83
2021/12/29 00:03:11;;;;;;;8.00;7.80;;;7.70;99.90;;;;;;5026502;28;20247;-82
2021/12/29 00:05:39;;;;;;;8.10;7.90;;;7.70;99.90;;;;;;5027671;28;20291;-82
2021/12/29 00:08:07;;;;;;;7.90;7.70;;;7.80;99.90;;;;;;5029073;28;20240;-83
2021/12/29 00:10:36;;;;;;;7.90;7.70;;;7.80;99.90;;;;;;5010817;28;20307;-82
2021/12/29 00:13:04;;;;;;;8.00;7.80;;;7.70;99.90;;;;;;5024545;28;20324;-82
2021/12/29 00:15:36;;;;;;;7.87;7.67;;;7.80;99.90;;;;;;5027260;28;20267;-82
2021/12/29 00:18:04;;;;;;;7.90;7.70;;;7.80;99.90;;;;;;5027421;28;20304;-82
2021/12/29 00:20:33;;;;;;;8.00;7.80;;;7.80;99.90;;;;;;5026908;28;20223;-82
2021/12/29 00:23:04;;;;;;;8.00;7.80;;;7.80;99.90;;;;;;5026292;28;20259;-82
2021/12/29 00:25:32;;;;;;;8.00;7.80;;;7.80;99.90;;;;;;5018521;28;20229;-82
2021/12/29 00:28:01;;;;;;;7.97;7.77;;;7.80;99.90;;;;;;5013263;28;20356;-82
2021/12/29 00:30:29;;;;;;;7.80;7.60;;;7.90;99.90;;;;;;5005437;28;20229;-82
2021/12/29 00:32:59;;;;;;;8.07;7.87;;;7.90;99.90;;;;;;5004770;28;20284;-82
2021/12/29 00:35:27;;;;;;;8.10;7.90;;;7.90;99.90;;;;;;5005953;28;20233;-82
2021/12/29 00:37:59;;;;;;;8.27;8.07;;;7.90;99.90;;;;;;5005292;28;20247;-83
2021/12/29 00:40:27;;;;;;;8.20;8.00;;;7.90;99.90;;;;;;5005148;28;20225;-82
2021/12/29 00:42:54;;;;;;;8.17;7.97;;;7.90;99.90;;;;;;5004961;28;20236;-82
2021/12/29 00:45:22;;;;;;;8.27;8.07;;;7.90;99.90;;;;;;5006036;28;20320;-82
2021/12/29 00:47:50;;;;;;;8.50;8.30;;;7.90;99.90;;;;;;5005457;28;20236;-83
2021/12/29 00:50:20;;;;;;;8.37;8.17;;;8.00;99.90;;;;;;5013501;28;20228;-82
2021/12/29 00:52:49;;;;;;;8.50;8.30;;;8.00;99.90;;;;;;5005247;28;20236;-82
2021/12/29 00:55:19;;;;;;;8.30;8.10;;;8.00;99.90;;;;;;5006240;28;20244;-82
2021/12/29 00:57:51;;;;;;;8.60;8.40;;;8.00;99.90;;;;;;5004657;28;20312;-82
2021/12/29 01:00:21;;;;;;;8.40;8.20;;;8.00;99.90;;;;;;5005384;28;20252;-82
2021/12/29 01:02:50;;;;;;;8.20;8.00;;;8.00;99.90;;;;;;5004731;28;20233;-82
2021/12/29 01:05:20;;;;;;;8.23;8.03;;;8.10;99.90;;;;;;5005109;28;20243;-82
2021/12/29 01:07:49;;;;;;;8.27;8.07;;;8.10;99.90;;;;;;5004479;28;20358;-82
2021/12/29 01:10:18;;;;;;;8.20;8.00;;;8.00;99.90;;;;;;5004708;28;20232;-82
2021/12/29 01:12:53;;;;;;;8.60;8.40;;;8.10;99.90;;;;;;5004110;28;20216;-83
2021/12/29 01:15:27;;;;;;;8.60;8.40;;;8.10;99.90;;;;;;5004458;28;20236;-83
2021/12/29 01:17:58;;;;;;;8.53;8.33;;;8.10;99.90;;;;;;5004097;28;20232;-82
2021/12/29 01:20:40;;;;;;;8.20;8.00;;;8.10;99.90;;;;;;5155858;27;1418910;-83
2021/12/29 01:23:08;;;;;;;8.10;7.90;;;8.10;99.90;;;;;;5184035;27;20226;-82
2021/12/29 01:25:35;;;;;;;8.10;7.90;;;8.10;99.90;;;;;;5183767;27;20296;-82
2021/12/29 01:28:03;;;;;;;8.00;7.80;;;8.00;99.90;;;;;;5173314;27;20239;-82
2021/12/29 01:30:31;;;;;;;8.20;8.00;;;8.00;99.90;;;;;;5163472;27;20231;-82
2021/12/29 01:33:05;;;;;;;8.00;7.80;;;8.00;99.90;;;;;;5162557;27;20708;-82
2021/12/29 01:35:34;;;;;;;7.90;7.70;;;8.10;99.90;;;;;;5162999;27;20431;-81
2021/12/29 01:38:05;;;;;;;8.00;7.80;;;8.00;99.90;;;;;;5163027;27;20219;-82
2021/12/29 01:40:35;;;;;;;7.90;7.70;;;8.10;99.90;;;;;;5162875;27;20230;-82
2021/12/29 01:43:04;;;;;;;8.00;7.80;;;8.00;99.90;;;;;;5163651;27;20237;-83
2021/12/29 01:45:31;;;;;;;8.10;7.90;;;8.00;99.90;;;;;;5164216;27;20241;-82
2021/12/29 01:48:01;;;;;;;7.80;7.60;;;8.00;99.90;;;;;;5165343;27;20236;-82
2021/12/29 01:50:31;;;;;;;7.90;7.70;;;8.00;99.90;;;;;;5167070;27;20232;-82
2021/12/29 01:53:03;;;;;;;7.97;7.77;;;8.00;99.90;;;;;;5165987;27;20241;-82
2021/12/29 01:55:32;;;;;;;7.93;7.73;;;8.00;99.90;;;;;;5165270;27;20232;-82
2021/12/29 01:58:01;;;;;;;7.93;7.73;;;8.00;99.90;;;;;;5163675;27;20242;-82
2021/12/29 02:00:33;;;;;;;7.93;7.73;;;8.00;99.90;;;;;;5163843;27;20257;-82
2021/12/29 02:03:01;;;;;;;7.80;7.60;;;8.00;99.90;;;;;;5163661;27;20235;-82
2021/12/29 02:05:29;;;;;;;8.20;8.00;;;8.00;99.90;;;;;;5171643;27;20215;-82
2021/12/29 02:07:56;;;;;;;7.70;7.50;;;8.00;99.90;;;;;;5167492;27;20208;-82
2021/12/29 02:10:24;;;;;;;8.10;7.90;;;8.00;99.90;;;;;;5167253;27;20231;-81
2021/12/29 02:12:54;;;;;;;7.80;7.60;;;8.00;99.90;;;;;;5166434;27;20227;-82
2021/12/29 02:15:22;;;;;;;8.03;7.83;;;8.00;99.90;;;;;;5164352;27;20235;-81
2021/12/29 02:17:50;;;;;;;8.20;8.00;;;8.00;99.90;;;;;;5164353;27;20235;-82
2021/12/29 02:20:21;;;;;;;8.03;7.83;;;8.10;99.90;;;;;;5163642;27;20235;-82
2021/12/29 02:22:54;;;;;;;8.00;7.80;;;8.00;99.90;;;;;;5164660;27;20326;-82
2021/12/29 02:25:34;;;;;;;7.90;7.70;;;8.10;99.90;;;;;;5164874;27;20231;-81
2021/12/29 02:28:03;;;;;;;8.00;7.80;;;8.10;99.90;;;;;;5163606;27;20227;-82
2021/12/29 02:30:31;;;;;;;7.83;7.63;;;8.10;99.90;;;;;;5158441;27;20228;-82
2021/12/29 02:33:02;;;;;;;7.70;7.50;;;8.10;99.90;;;;;;5150138;27;20352;-82
2021/12/29 02:35:31;;;;;;;7.90;7.70;;;8.10;99.90;;;;;;5149662;27;20224;-82
2021/12/29 02:38:00;;;;;;;8.30;8.10;;;8.10;99.90;;;;;;5149101;27;20238;-82
2021/12/29 02:40:31;;;;;;;8.13;7.93;;;8.00;99.90;;;;;;5149427;27;20307;-82
2021/12/29 02:42:59;;;;;;;7.57;7.37;;;8.10;99.90;;;;;;5149044;27;20260;-82
2021/12/29 02:45:27;;;;;;;7.50;7.30;;;8.00;99.90;;;;;;5149569;27;20224;-82
2021/12/29 02:47:55;;;;;;;7.50;7.30;;;8.00;99.90;;;;;;5149511;27;20232;-82
2021/12/29 02:50:23;;;;;;;7.63;7.43;;;8.00;99.90;;;;;;5149196;27;20232;-83
2021/12/29 02:52:52;;;;;;;7.70;7.50;;;8.00;99.90;;;;;;5149836;27;20236;-82
2021/12/29 02:55:20;;;;;;;8.00;7.80;;;8.00;99.90;;;;;;5150570;27;20216;-83
2021/12/29 02:57:48;;;;;;;7.90;7.70;;;8.00;99.90;;;;;;5149836;27;20228;-83
2021/12/29 03:00:17;;;;;;;7.80;7.60;;;8.00;99.90;;;;;;5150065;27;20258;-82
2021/12/29 03:02:46;;;;;;;7.73;7.53;;;8.00;99.90;;;;;;5149034;27;20232;-83
2021/12/29 03:05:14;;;;;;;7.93;7.73;;;8.00;99.90;;;;;;5148992;27;20234;-82
2021/12/29 03:07:41;;;;;;;8.10;7.90;;;8.00;99.90;;;;;;5148709;27;20236;-82
2021/12/29 03:10:11;;;;;;;7.97;7.77;;;8.10;99.90;;;;;;5148723;27;20228;-82
2021/12/29 03:12:38;;;;;;;7.97;7.77;;;8.10;99.90;;;;;;5147707;27;20236;-82
2021/12/29 03:15:07;;;;;;;8.00;7.80;;;8.10;99.90;;;;;;5147829;27;20236;-82
2021/12/29 03:17:34;;;;;;;8.07;7.87;;;8.10;99.90;;;;;;5147758;27;20240;-82
2021/12/29 03:20:02;;;;;;;8.10;7.90;;;8.20;99.90;;;;;;5147597;27;20232;-82
2021/12/29 03:22:34;;;;;;;8.23;8.03;;;8.20;99.90;;;;;;5147866;27;20235;-83
2021/12/29 03:25:01;;;;;;;8.17;7.97;;;8.10;99.90;;;;;;5148063;27;20318;-82
2021/12/29 03:27:31;;;;;;;8.00;7.80;;;8.10;99.90;;;;;;5147720;27;20216;-82
2021/12/29 03:29:58;;;;;;;8.10;7.90;;;8.20;99.90;;;;;;5148854;27;20261;-82
2021/12/29 03:32:38;;;;;;;8.03;7.83;;;8.10;99.90;;;;;;5147824;27;20239;-83
2021/12/29 03:35:07;;;;;;;7.90;7.70;;;8.10;99.90;;;;;;5146773;27;20243;-82
2021/12/29 03:37:34;;;;;;;7.90;7.70;;;8.10;99.90;;;;;;5147558;27;20216;-82
2021/12/29 03:40:02;;;;;;;7.80;7.60;;;8.10;99.90;;;;;;5148988;27;20227;-83
2021/12/29 03:42:32;;;;;;;7.47;7.27;;;8.10;99.90;;;;;;5154410;27;20243;-82
2021/12/29 03:45:00;;;;;;;7.80;7.60;;;8.10;99.90;;;;;;5148931;27;20224;-82
2021/12/29 03:47:28;;;;;;;7.90;7.70;;;8.10;99.90;;;;;;5147415;27;20228;-82
2021/12/29 03:49:56;;;;;;;7.90;7.70;;;8.10;99.90;;;;;;5147847;27;20239;-83
2021/12/29 03:52:23;;;;;;;7.93;7.73;;;8.10;99.90;;;;;;5148213;27;20310;-82
2021/12/29 03:54:51;;;;;;;7.73;7.53;;;8.10;99.90;;;;;;5147716;27;20231;-82
2021/12/29 03:57:19;;;;;;;7.70;7.50;;;8.20;99.90;;;;;;5147951;27;20232;-82
2021/12/29 03:59:48;;;;;;;7.90;7.70;;;8.20;99.90;;;;;;5148201;27;20244;-82
2021/12/29 04:02:16;;;;;;;7.90;7.70;;;8.10;99.90;;;;;;5147760;27;20296;-83
2021/12/29 04:04:43;;;;;;;7.70;7.50;;;8.20;99.90;;;;;;5147279;27;20220;-81
2021/12/29 04:07:11;;;;;;;8.03;7.83;;;8.20;99.90;;;;;;5148771;27;20236;-82
2021/12/29 04:09:39;;;;;;;8.10;7.90;;;8.20;99.90;;;;;;5149045;27;20228;-82
2021/12/29 04:12:08;;;;;;;8.00;7.80;;;8.20;99.90;;;;;;5148089;27;20287;-82
2021/12/29 04:14:36;;;;;;;8.10;7.90;;;8.20;99.90;;;;;;5148365;27;20227;-82
2021/12/29 04:17:11;;;;;;;8.07;7.87;;;8.20;99.90;;;;;;5147749;27;20227;-82
2021/12/29 04:22:24;;;;;;;8.40;8.20;;;8.20;99.90;;;;;;5145211;27;20336;-82
2021/12/29 04:24:52;;;;;;;8.20;8.00;;;8.30;99.90;;;;;;5146397;27;20246;-83
2021/12/29 04:27:22;;;;;;;7.90;7.70;;;8.20;99.90;;;;;;5146104;27;20301;-82
2021/12/29 04:29:50;;;;;;;8.20;8.00;;;8.30;99.90;;;;;;5146154;27;20235;-83
2021/12/29 04:32:19;;;;;;;8.90;8.60;;;8.20;99.90;;;;;;5145702;27;20250;-83
2021/12/29 04:34:47;;;;;;;8.90;8.60;;;8.20;99.90;;;;;;5146194;27;20285;-82
2021/12/29 04:37:15;;;;;;;8.87;8.57;;;8.20;99.90;;;;;;5146989;27;20217;-83
2021/12/29 04:39:42;;;;;;;8.50;8.30;;;8.20;99.90;;;;;;5146427;27;20232;-82
2021/12/29 04:42:10;;;;;;;8.40;8.20;;;8.10;99.90;;;;;;5146348;27;20235;-83
2021/12/29 04:44:38;;;;;;;8.30;8.10;;;8.10;99.90;;;;;;5146635;27;20223;-83
2021/12/29 04:47:07;;;;;;;8.50;8.30;;;8.10;99.90;;;;;;5146098;27;20338;-83
2021/12/29 04:49:41;;;;;;;8.50;8.30;;;8.10;99.90;;;;;;5145997;27;20294;-82
2021/12/29 04:52:11;;;;;;;8.50;8.30;;;8.00;99.90;;;;;;5146487;27;20297;-83
2021/12/29 04:54:39;;;;;;;8.60;8.40;;;8.00;99.90;;;;;;5144762;27;20283;-82
2021/12/29 04:57:07;;;;;;;8.30;8.10;;;8.00;99.90;;;;;;5147428;27;20232;-83
2021/12/29 04:59:35;;;;;;;8.47;8.27;;;8.00;99.90;;;;;;5129220;22;20238;-79
2021/12/29 05:02:07;;;;;;;8.40;8.20;;;8.00;99.90;;;;;;5102169;28;20226;-80
2021/12/29 05:04:45;;;;;;;7.70;7.50;;;8.00;99.90;;;;;;5083376;28;20321;-80
2021/12/29 05:10:00;;;;;;;8.10;7.90;;;8.10;99.90;;;;;;5082075;28;20237;-79
2021/12/29 05:12:30;;;;;;;8.20;8.00;;;8.10;99.90;;;;;;5081688;28;20230;-80
2021/12/29 05:14:58;;;;;;;7.90;7.70;;;8.20;99.90;;;;;;5081710;28;20237;-79
2021/12/29 05:17:27;;;;;;;8.40;8.20;;;8.20;99.90;;;;;;5081872;28;20237;-79
2021/12/29 05:19:57;;;;;;;8.13;7.93;;;8.20;99.90;;;;;;5081207;28;20234;-78
2021/12/29 05:22:25;;;;;;;8.20;8.00;;;8.20;99.90;;;;;;5081259;28;20244;-79
2021/12/29 05:24:57;;;;;;;8.53;8.33;;;8.20;99.90;;;;;;5081766;28;20242;-79
2021/12/29 05:27:27;;;;;;;8.13;7.93;;;8.30;99.90;;;;;;5082654;28;20267;-79
2021/12/29 05:29:56;;;;;;;8.17;7.97;;;8.30;99.90;;;;;;5086513;28;20291;-79
2021/12/29 05:32:24;;;;;;;8.17;7.97;;;8.30;99.90;;;;;;5084272;28;20240;-80
2021/12/29 05:34:52;;;;;;;7.97;7.77;;;8.30;99.90;;;;;;5083654;28;20230;-79
2021/12/29 05:37:23;;;;;;;8.00;7.80;;;8.30;99.90;;;;;;5081912;28;20409;-79
2021/12/29 05:39:54;;;;;;;7.97;7.77;;;8.30;99.90;;;;;;5081498;28;20230;-80
2021/12/29 05:42:23;;;;;;;8.00;7.80;;;8.30;99.90;;;;;;5080737;28;20241;-80
2021/12/29 05:44:53;;;;;;;8.00;7.80;;;8.30;99.90;;;;;;5081259;28;20226;-80
2021/12/29 05:47:23;;;;;;;8.03;7.83;;;8.30;99.90;;;;;;5081176;28;20226;-79
2021/12/29 05:49:52;;;;;;;8.10;7.90;;;8.30;99.90;;;;;;5081145;28;20264;-80
2021/12/29 05:52:24;;;;;;;8.40;8.20;;;8.30;99.90;;;;;;5080847;28;20237;-80
2021/12/29 05:54:52;;;;;;;8.30;8.10;;;8.30;99.90;;;;;;5080777;28;20282;-80
2021/12/29 05:57:20;;;;;;;8.10;7.90;;;8.30;99.90;;;;;;5080864;28;20227;-80
2021/12/29 05:59:51;;;;;;;8.40;8.20;;;8.30;99.90;;;;;;5081075;28;20238;-80
2021/12/29 06:02:19;;;;;;;8.20;8.00;;;8.30;99.90;;;;;;5081160;28;20230;-80
2021/12/29 06:04:49;;;;;;;8.33;8.13;;;8.30;99.90;;;;;;5081252;28;20269;-80
2021/12/29 06:07:27;;;;;;;9.10;8.80;;;8.30;99.90;;;;;;5086118;28;20233;-80
2021/12/29 06:09:56;;;;;;;9.03;8.73;;;8.30;99.90;;;;;;5092440;28;20238;-80
2021/12/29 06:12:25;;;;;;;8.90;8.60;;;8.30;99.90;;;;;;5088750;28;20262;-80
2021/12/29 06:14:55;;;;;;;9.00;8.70;;;8.30;99.90;;;;;;5086483;28;20234;-80
2021/12/29 06:17:27;;;;;;;9.50;9.20;;;8.30;99.90;;;;;;5085232;28;20222;-80
2021/12/29 06:19:56;;;;;;;9.27;8.97;;;8.30;99.90;;;;;;5084785;28;20234;-80
2021/12/29 06:25:11;;;;;;;8.90;8.60;;;8.30;99.90;;;;;;5084302;28;20260;-80
2021/12/29 06:27:40;;;;;;;9.00;8.70;;;8.30;99.90;;;;;;5084969;28;20230;-80
2021/12/29 06:30:11;;;;;;;9.20;8.90;;;8.30;99.90;;;;;;5084593;28;20265;-80
2021/12/29 06:32:40;;;;;;;9.20;8.90;;;8.30;99.90;;;;;;5085191;28;20290;-80
2021/12/29 06:38:04;;;;;;;9.30;9.00;;;8.30;99.90;;;;;;5083798;28;20229;-80
2021/12/29 06:40:33;;;;;;;9.20;8.90;;;8.30;99.90;;;;;;5084496;28;20234;-80
2021/12/29 06:43:02;;;;;;;9.10;8.80;;;8.30;99.90;;;;;;5084127;28;20230;-80
2021/12/29 06:45:32;;;;;;;9.30;9.00;;;8.30;99.90;;;;;;5084385;28;20226;-80
2021/12/29 06:48:01;;;;;;;9.30;9.00;;;8.30;99.90;;;;;;5084718;28;20248;-79
2021/12/29 06:50:32;;;;;;;9.20;8.90;;;8.40;99.90;;;;;;5084266;28;20292;-80
2021/12/29 06:53:03;;;;;;;9.30;9.00;;;8.30;99.90;;;;;;5084299;28;20258;-80
2021/12/29 06:55:31;;;;;;;9.00;8.70;;;8.30;99.90;;;;;;5085334;28;20316;-80
2021/12/29 06:58:00;;;;;;;9.37;9.07;;;8.30;99.90;;;;;;5085375;28;20230;-80
2021/12/29 07:00:28;;;;;;;10.30;10.00;;;8.30;99.90;;;;;;5084289;28;20421;-81
2021/12/29 07:02:58;;;;;;;10.00;9.70;;;8.30;99.90;;;;;;5087481;28;20298;-81
2021/12/29 07:05:55;;;;;;;9.87;9.57;;;8.40;99.90;;;;;;5088458;28;20226;-81
2021/12/29 07:08:32;;;;;;;9.57;9.27;;;8.40;99.90;;;;;;5090636;28;20231;-81
2021/12/29 07:11:02;;;;;;;9.60;9.30;;;8.40;99.90;;;;;;5099760;28;20228;-81
2021/12/29 07:13:32;;;;;;;9.40;9.10;;;8.40;99.90;;;;;;5102063;28;20212;-82
2021/12/29 07:16:01;;;;;;;9.90;9.60;;;8.40;99.90;;;;;;5102442;28;20270;-82
2021/12/29 07:18:29;;;;;;;9.90;9.60;;;8.40;99.90;;;;;;5102090;28;20253;-81
2021/12/29 07:20:59;;;;;;;9.47;9.17;;;8.40;99.90;;;;;;5102320;28;20206;-83
2021/12/29 07:23:38;;;;;;;9.50;9.20;;;8.40;99.90;;;;;;5102265;28;20210;-83
2021/12/29 07:26:11;;;;;;;9.40;9.10;;;8.40;99.90;;;;;;5102101;28;20270;-83
2021/12/29 07:28:40;;;;;;;9.53;9.23;;;8.40;99.90;;;;;;5102022;28;20206;-84
2021/12/29 07:31:08;;;;;;;9.57;9.27;;;8.30;99.90;;;;;;5101420;28;21079;-83
2021/12/29 07:33:37;;;;;;;9.80;9.50;;;8.40;99.90;;;;;;5101089;28;20435;-85
2021/12/29 07:36:24;;;;;;;9.53;9.23;;;8.40;99.90;;;;;;5101362;28;20219;-84
2021/12/29 07:39:05;;;;;;;9.47;9.17;;;8.40;99.90;;;;;;5100499;28;20210;-85
2021/12/29 07:41:42;;;;;;;9.77;9.47;;;8.40;99.90;;;;;;5100417;28;20226;-83
2021/12/29 07:44:13;;;;;;;9.83;9.53;;;8.40;99.90;;;;;;5100834;28;20256;-83
2021/12/29 07:47:17;;;;;;;9.80;9.50;;;8.40;99.90;;;;;;5100378;28;20225;-82
2021/12/29 07:49:47;;;;;;;9.80;9.50;;;8.40;99.90;;;;;;5098346;28;20233;-82
2021/12/29 07:52:32;;;;;;;9.70;9.40;;;8.50;99.90;;;;;;5098684;28;20216;-82
2021/12/29 07:55:12;;;;;;;9.63;9.33;;;8.50;99.90;;;;;;5097180;28;20244;-85
2021/12/29 07:57:51;;;;;;;9.97;9.67;;;8.50;99.90;;;;;;5097983;28;20214;-83
2021/12/29 08:00:29;;;;;;;9.97;9.67;;;8.50;99.90;;;;;;5095983;28;20233;-83
2021/12/29 08:09:16;;;;;;;9.70;9.40;;;8.50;99.90;;;;;;5087970;28;20253;-82
2021/12/29 08:12:01;;;;;;;9.87;9.57;;;8.50;99.90;;;;;;5084480;28;20259;-83
2021/12/29 08:14:40;;;;;;;10.03;9.73;;;8.50;99.90;;;;;;5084081;28;20226;-83
2021/12/29 08:17:21;;;;;;;10.00;9.70;;;8.50;99.90;;;;;;5085091;28;20253;-82
2021/12/29 08:19:59;;;;;;;9.90;9.60;;;8.50;99.90;;;;;;5083893;28;20238;-82
2021/12/29 08:22:54;;;;;;;10.00;9.70;;;8.50;99.90;;;;;;5087976;28;20581;-83
2021/12/29 08:25:29;;;;;;;9.83;9.53;;;8.50;99.90;;;;;;5091220;28;20326;-83
2021/12/29 08:31:23;;;;;;;9.90;9.60;;;8.50;99.90;;;;;;5085209;28;20222;-83
2021/12/29 08:34:01;;;;;;;9.77;9.47;;;8.50;99.90;;;;;;5085262;28;20225;-83
2021/12/29 08:36:29;;;;;;;9.80;9.50;;;8.50;99.90;;;;;;5086412;28;20238;-82
2021/12/29 08:39:18;;;;;;;9.63;9.33;;;8.50;99.90;;;;;;5093825;28;20226;-81
2021/12/29 08:41:54;;;;;;;9.60;9.30;;;8.50;99.90;;;;;;5094111;28;20230;-83
2021/12/29 08:44:42;;;;;;;9.90;9.60;;;8.50;99.90;;;;;;5084295;28;20249;-83
2021/12/29 08:47:39;;;;;;;10.00;9.70;;;8.50;99.90;;;;;;5064051;28;20227;-83
2021/12/29 08:50:25;;;;;;;9.83;9.53;;;8.50;99.90;;;;;;5016125;28;20240;-83
2021/12/29 08:53:13;;;;;;;10.20;9.90;;;8.50;99.90;;;;;;5084338;28;20232;-84
2021/12/29 08:58:54;;;;;;;9.93;9.63;;;8.50;99.90;;;;;;5085632;28;20264;-84
2021/12/29 09:01:42;;;;;;;9.70;9.40;;;8.50;99.90;;;;;;5087434;28;20241;-85
2021/12/29 09:04:11;;;;;;;9.43;9.13;;;8.40;99.90;;;;;;5084465;28;20269;-83
2021/12/29 09:07:05;;;;;;;9.30;9.00;;;8.30;99.90;;;;;;5083738;28;20288;-83
2021/12/29 09:09:43;;;;;;;9.27;8.97;;;8.20;99.90;;;;;;5083301;28;20234;-83
2021/12/29 09:12:28;;;;;;;9.10;8.80;;;8.20;99.90;;;;;;5082327;28;20268;-83
2021/12/29 09:18:15;;;;;;;8.90;8.60;;;8.10;99.90;;;;;;5080962;28;20228;-82
2021/12/29 09:20:47;;;;;;;8.93;8.63;;;8.10;99.90;;;;;;5082604;28;20226;-83
2021/12/29 09:23:23;;;;;;;9.10;8.80;;;8.10;99.90;;;;;;5082948;28;20226;-83
2021/12/29 09:26:30;;;;;;;9.10;8.80;;;8.10;99.90;;;;;;5083218;28;20230;-85
2021/12/29 09:29:11;;;;;;;9.07;8.77;;;8.10;99.90;;;;;;5082171;28;20214;-84
2021/12/29 09:35:25;;;;;;;9.00;8.70;;;8.20;99.90;;;;;;5082302;28;20313;-85
2021/12/29 09:38:29;;;;;;;8.70;8.43;;;8.30;99.90;;;;;;5088185;28;20234;-83
2021/12/29 09:50:38;;;;;;;8.70;8.40;;;8.00;99.90;;;;;;5087685;28;20234;-85
2021/12/29 09:53:10;;;;;;;8.90;8.60;;;8.00;99.90;;;;;;5088729;28;20210;-84
2021/12/29 09:55:40;;;;;;;8.77;8.47;;;8.00;99.90;;;;;;5089041;28;20245;-84
2021/12/29 09:58:15;;;;;;;8.50;8.30;;;8.00;99.90;;;;;;5087073;28;20248;-85
2021/12/29 10:00:59;;;;;;;7.97;7.77;;;8.00;99.90;;;;;;5087776;28;20232;-84
2021/12/29 10:03:42;;;;;;;8.10;7.90;;;8.00;99.90;;;;;;5087247;28;20249;-84
2021/12/29 10:06:32;;;;;;;8.30;8.10;;;8.10;99.90;;;;;;5092751;28;20297;-85
2021/12/29 10:09:25;;;;;;;8.40;8.20;;;8.10;99.90;;;;;;5091991;28;20238;-84
2021/12/29 10:24:30;;;;;;;8.88;8.57;;;8.10;99.90;;;;;;5084783;28;20420;-82
2021/12/29 10:29:53;;;;;;;8.40;8.20;;;8.20;99.90;;;;;;5083646;28;20268;-83
2021/12/29 10:32:25;;;;;;;8.23;8.03;;;8.20;99.90;;;;;;5087756;28;20329;-82
2021/12/29 10:37:49;;;;;;;8.37;8.17;;;8.30;99.90;;;;;;5094846;28;20207;-82
2021/12/29 10:40:28;;;;;;;8.30;8.10;;;8.40;99.90;;;;;;5089027;28;20245;-82
2021/12/29 10:43:07;;;;;;;8.00;7.80;;;8.50;99.90;;;;;;5088268;28;20232;-83
2021/12/29 10:45:46;;;;;;;8.20;8.00;;;8.50;99.90;;;;;;5088065;28;20248;-83
2021/12/29 10:48:24;;;;;;;8.20;8.00;;;8.60;99.90;;;;;;5087551;28;20304;-83
2021/12/29 10:51:02;;;;;;;8.50;8.30;;;8.60;99.90;;;;;;5086199;28;20314;-82
2021/12/29 10:53:39;;;;;;;8.40;8.20;;;8.50;99.90;;;;;;5086679;28;20301;-83
2021/12/29 10:59:13;;;;;;;8.20;8.00;;;8.40;99.90;;;;;;5085338;28;20249;-82
2021/12/29 11:01:43;;;;;;;8.20;8.00;;;8.50;99.90;;;;;;5091893;28;20246;-84
2021/12/29 11:07:01;;;;;;;8.50;8.30;;;8.40;99.90;;;;;;5097000;28;20248;-84
2021/12/29 11:09:38;;;;;;;8.33;8.13;;;8.50;99.90;;;;;;5087341;28;20222;-83
2021/12/29 11:12:13;;;;;;;8.50;8.30;;;8.60;99.90;;;;;;5129623;22;20734;-78
2021/12/29 11:14:43;;;;;;;8.73;8.53;;;8.60;99.90;;;;;;5119465;28;20232;-82
2021/12/29 11:17:14;;;;;;;8.50;8.30;;;8.60;99.90;;;;;;5122328;28;20217;-80
2021/12/29 11:19:51;;;;;;;8.90;8.60;;;8.70;99.90;;;;;;5124900;28;20229;-81
2021/12/29 11:22:22;;;;;;;9.17;8.87;;;8.70;99.90;;;;;;5132632;27;20323;-80
2021/12/29 11:25:00;;;;;;;9.00;8.70;;;8.70;99.90;;;;;;5142661;27;20216;-80
2021/12/29 11:27:30;;;;;;;8.97;8.67;;;8.70;99.90;;;;;;5142805;27;20208;-79
2021/12/29 11:30:04;;;;;;;9.00;8.70;;;8.70;99.90;;;;;;5142553;27;20228;-79
2021/12/29 11:32:35;;;;;;;8.93;8.67;;;8.70;99.90;;;;;;5141891;27;20228;-79
2021/12/29 11:35:08;;;;;;;9.00;8.70;;;8.70;99.90;;;;;;5136911;27;20228;-79
2021/12/29 11:37:38;;;;;;;8.83;8.57;;;8.70;99.90;;;;;;5130748;27;20235;-80
2021/12/29 11:40:11;;;;;;;9.13;8.83;;;8.70;99.90;;;;;;5145779;27;20205;-81
2021/12/29 11:42:39;;;;;;;8.73;8.53;;;8.70;99.90;;;;;;5133895;27;20232;-80
2021/12/29 11:45:09;;;;;;;9.10;8.80;;;8.60;99.90;;;;;;5131855;27;20228;-79
2021/12/29 11:47:37;;;;;;;9.10;8.80;;;8.60;99.90;;;;;;5142542;27;20293;-80
2021/12/29 11:50:07;;;;;;;9.20;8.90;;;8.60;99.90;;;;;;5141542;27;20229;-80
2021/12/29 11:52:54;;;;;;;9.10;8.80;;;8.60;99.90;;;;;;5130844;27;20224;-80
2021/12/29 11:55:31;;;;;;;9.10;8.80;;;8.70;99.90;;;;;;5120120;28;20323;-80
2021/12/29 11:58:10;;;;;;;8.67;8.47;;;8.80;99.90;;;;;;5120051;28;20264;-79
2021/12/29 12:00:39;;;;;;;9.03;8.73;;;8.80;99.90;;;;;;5120151;28;20224;-80
2021/12/29 12:03:11;;;;;;;8.87;8.60;;;8.90;99.90;;;;;;5118509;27;20264;-80
2021/12/29 12:05:41;;;;;;;9.30;9.00;;;9.00;99.90;;;;;;5128661;27;20247;-80
2021/12/29 12:08:13;;;;;;;9.40;9.10;;;9.00;99.90;;;;;;5120089;28;20252;-80
2021/12/29 12:10:43;;;;;;;9.60;9.30;;;9.00;99.90;;;;;;5120034;28;20268;-81
2021/12/29 12:13:25;;;;;;;9.40;9.10;;;9.10;99.90;;;;;;5135554;27;20282;-80
2021/12/29 12:16:05;;;;;;;9.40;9.10;;;9.10;99.90;;;;;;5139846;27;20256;-81
2021/12/29 12:18:45;;;;;;;9.30;9.00;;;9.20;99.90;;;;;;5141501;27;20220;-81
2021/12/29 12:21:30;;;;;;;9.23;8.93;;;9.20;99.90;;;;;;5141748;27;20293;-81
2021/12/29 12:24:16;;;;;;;9.63;9.33;;;9.30;99.90;;;;;;5142253;27;20233;-81
2021/12/29 12:27:01;;;;;;;9.57;9.27;;;9.30;99.90;;;;;;5120907;27;20233;-82
2021/12/29 12:29:32;;;;;;;9.50;9.20;;;9.30;99.90;;;;;;5131078;28;20219;-80
2021/12/29 12:32:08;;;;;;;9.53;9.23;;;9.30;99.90;;;;;;5139792;28;20213;-79
2021/12/29 12:34:48;;;;;;;9.37;9.07;;;9.30;99.90;;;;;;5140256;28;20216;-78
2021/12/29 12:37:18;;;;;;;9.70;9.40;;;9.30;99.90;;;;;;5139814;28;20220;-79
2021/12/29 12:39:59;;;;;;;9.60;9.30;;;9.20;99.90;;;;;;5139472;28;20217;-79
2021/12/29 12:42:29;;;;;;;9.67;9.37;;;9.20;99.90;;;;;;5133286;28;20374;-80
2021/12/29 12:44:58;;;;;;;10.00;9.70;;;9.20;99.90;;;;;;5126197;28;20311;-80
2021/12/29 12:47:31;;;;;;;9.70;9.40;;;9.20;99.90;;;;;;5124209;28;20389;-81
2021/12/29 12:50:00;;;;;;;9.60;9.30;;;9.10;99.90;;;;;;5124958;28;20229;-80
2021/12/29 12:52:40;;;;;;;9.87;9.57;;;9.10;99.90;;;;;;5123375;27;20262;-80
2021/12/29 12:55:11;;;;;;;10.20;9.90;;;9.10;99.90;;;;;;5123791;28;20263;-81
2021/12/29 12:57:44;;;;;;;10.10;9.80;;;9.10;99.90;;;;;;5119440;27;20232;-80
2021/12/29 13:00:20;;;;;;;9.90;9.60;;;9.10;99.90;;;;;;5122345;28;20213;-81
2021/12/29 13:02:53;;;;;;;9.83;9.53;;;9.20;99.90;;;;;;5121722;28;20228;-80
2021/12/29 13:05:24;;;;;;;10.00;9.70;;;9.20;99.90;;;;;;5139757;27;20424;-79
2021/12/29 13:08:04;;;;;;;9.83;9.53;;;9.20;99.90;;;;;;5129855;27;20251;-81
2021/12/29 13:10:41;;;;;;;9.97;9.67;;;9.20;99.90;;;;;;5129415;27;20229;-81
2021/12/29 13:13:14;;;;;;;9.67;9.37;;;9.30;99.90;;;;;;5136439;27;20278;-80
2021/12/29 13:15:45;;;;;;;9.60;9.30;;;9.40;99.90;;;;;;5140197;27;20231;-80
2021/12/29 13:18:15;;;;;;;9.63;9.33;;;9.40;99.90;;;;;;5141954;27;20224;-80
2021/12/29 13:20:44;;;;;;;9.20;8.90;;;9.50;99.90;;;;;;5141092;27;20236;-81
2021/12/29 13:23:15;;;;;;;9.30;9.00;;;9.60;99.90;;;;;;5140764;27;20281;-80
2021/12/29 13:25:45;;;;;;;9.07;8.77;;;9.60;99.90;;;;;;5145867;27;20300;-81
2021/12/29 13:28:15;;;;;;;9.20;8.90;;;9.60;99.90;;;;;;5139097;27;20228;-79
2021/12/29 13:30:50;;;;;;;9.60;9.30;;;9.70;99.90;;;;;;5139027;27;20290;-81
2021/12/29 13:33:22;;;;;;;9.20;8.90;;;9.80;99.90;;;;;;5139652;27;20223;-81
2021/12/29 13:35:52;;;;;;;8.97;8.77;;;9.80;99.90;;;;;;5140913;27;20310;-81
2021/12/29 13:38:20;;;;;;;9.30;9.00;;;9.80;99.90;;;;;;5140502;27;20253;-81
2021/12/29 13:40:51;;;;;;;9.37;9.07;;;9.80;99.90;;;;;;5141279;27;20301;-80
2021/12/29 13:43:23;;;;;;;9.30;9.00;;;9.70;99.90;;;;;;5141540;27;20284;-81
2021/12/29 13:45:54;;;;;;;9.47;9.17;;;9.70;99.90;;;;;;5142528;27;20231;-82
2021/12/29 13:48:28;;;;;;;9.40;9.10;;;9.60;99.90;;;;;;5143561;27;20276;-82
2021/12/29 13:51:00;;;;;;;9.60;9.30;;;9.60;99.90;;;;;;5142652;27;20244;-82
2021/12/29 13:53:33;;;;;;;9.30;9.00;;;9.60;99.90;;;;;;5145343;27;20220;-82
2021/12/29 13:56:09;;;;;;;9.30;9.00;;;9.60;99.90;;;;;;5143134;27;20215;-81
2021/12/29 13:58:39;;;;;;;9.40;9.10;;;9.50;99.90;;;;;;5141208;27;20232;-81
2021/12/29 14:01:08;;;;;;;9.00;8.77;;;9.50;99.90;;;;;;5139578;27;20239;-81
2021/12/29 14:03:37;;;;;;;9.07;8.77;;;9.50;99.90;;;;;;5140815;27;20212;-81
2021/12/29 14:06:08;;;;;;;8.93;8.73;;;9.50;99.90;;;;;;5141888;27;20231;-81
2021/12/29 14:08:37;;;;;;;8.90;8.70;;;9.50;99.90;;;;;;5143061;27;20232;-82
2021/12/29 14:11:09;;;;;;;9.30;9.00;;;9.50;99.90;;;;;;5141710;27;20228;-81
2021/12/29 14:13:44;;;;;;;9.27;8.97;;;9.50;99.90;;;;;;5148868;27;20221;-82
2021/12/29 14:16:16;;;;;;;9.43;9.13;;;9.50;99.90;;;;;;5143662;27;20271;-81
2021/12/29 14:18:53;;;;;;;9.40;9.10;;;9.50;99.90;;;;;;5143965;27;20235;-81
2021/12/29 14:21:24;;;;;;;9.43;9.13;;;9.50;99.90;;;;;;5140186;27;20232;-81
2021/12/29 14:23:55;;;;;;;9.20;8.90;;;9.50;99.90;;;;;;5124337;28;20233;-80
2021/12/29 14:26:24;;;;;;;9.27;8.97;;;9.40;99.90;;;;;;5124730;27;20233;-80
2021/12/29 14:28:56;;;;;;;9.27;8.97;;;9.40;99.90;;;;;;5126461;28;20225;-80